createdAt,value
2017-12-29T12:02:40.130Z,61.65
2017-12-29T12:02:40.671Z,61.36
2017-12-29T12:02:41.201Z,61.36
2017-12-29T12:02:41.717Z,61.36
2017-12-29T12:02:42.294Z,61.17
2017-12-29T12:02:42.842Z,61.45
2017-12-29T12:06:54.034Z,70.69
2017-12-29T12:06:54.522Z,70.78
2017-12-29T12:06:55.042Z,70.78
2017-12-29T12:06:55.594Z,70.98
2017-12-29T12:06:56.047Z,70.78
2017-12-29T12:06:56.634Z,70.78
2017-12-29T12:06:57.187Z,70.98
2017-12-29T12:06:57.737Z,70.69
2017-12-29T12:06:58.275Z,70.50
2017-12-29T12:06:58.737Z,71.17
2017-12-29T12:06:59.277Z,70.50
2017-12-29T12:08:43.987Z,74.83
2017-12-29T12:08:44.513Z,74.45
2017-12-29T12:08:45.023Z,74.64
2017-12-29T12:08:45.533Z,74.54
2017-12-29T12:08:46.054Z,75.31
2017-12-29T12:08:46.576Z,75.02
2017-12-29T12:08:47.130Z,74.54
2017-12-29T12:08:47.694Z,75.11
2017-12-29T12:09:40.692Z,75.87
2017-12-29T12:09:41.254Z,75.87
2017-12-29T12:09:41.774Z,75.68
2017-12-29T12:09:42.295Z,75.68
2017-12-29T12:09:42.828Z,75.49
2017-12-29T12:09:43.348Z,76.06
2017-12-29T12:09:43.902Z,76.15
2017-12-29T12:09:44.450Z,75.96
2017-12-29T12:10:36.907Z,75.96
2017-12-29T12:10:37.420Z,76.15
2017-12-29T12:10:37.930Z,76.15
2017-12-29T12:10:38.453Z,76.15
2017-12-29T12:10:38.967Z,76.06
2017-12-29T12:10:39.489Z,75.78
2017-12-29T12:10:40.056Z,75.31
2017-12-29T12:10:40.599Z,75.49
2017-12-29T12:10:41.143Z,75.59
2017-12-29T12:14:03.957Z,77.16
2017-12-29T12:14:04.527Z,77.35
2017-12-29T12:14:05.042Z,77.16
2017-12-29T12:14:05.574Z,77.35
2017-12-29T12:14:06.084Z,77.54
2017-12-29T12:14:06.598Z,77.35
2017-12-29T12:14:07.171Z,77.35
2017-12-29T12:14:07.736Z,77.25
2017-12-29T12:14:08.282Z,76.68
2017-12-29T12:15:51.506Z,77.54
2017-12-29T12:15:52.065Z,77.73
2017-12-29T12:15:52.581Z,77.45
2017-12-29T12:15:53.099Z,77.64
2017-12-29T12:15:53.622Z,77.64
2017-12-29T12:15:54.140Z,77.45
2017-12-29T12:15:54.718Z,77.45
2017-12-29T12:15:55.242Z,77.45
2017-12-29T12:15:55.762Z,77.45
2017-12-29T12:17:38.326Z,78.67
2017-12-29T12:17:38.855Z,78.39
2017-12-29T12:17:39.364Z,78.58
2017-12-29T12:17:39.894Z,78.58
2017-12-29T12:17:40.427Z,78.49
2017-12-29T12:17:40.937Z,78.11
2017-12-29T12:17:41.457Z,78.39
2017-12-29T12:17:41.977Z,78.39
2017-12-29T12:17:42.549Z,78.02
2017-12-29T12:18:35.073Z,76.87
2017-12-29T12:18:35.585Z,77.06
2017-12-29T12:18:36.095Z,77.16
2017-12-29T12:18:36.653Z,77.16
2017-12-29T12:18:37.190Z,77.25
2017-12-29T12:18:37.708Z,77.35
2017-12-29T12:18:38.260Z,77.06
2017-12-29T12:18:38.807Z,77.35
2017-12-29T12:18:39.342Z,77.16
2017-12-29T12:20:21.886Z,77.35
2017-12-29T12:20:22.469Z,77.25
2017-12-29T12:20:22.991Z,77.45
2017-12-29T12:20:23.514Z,77.35
2017-12-29T12:20:24.033Z,77.16
2017-12-29T12:20:24.553Z,77.45
2017-12-29T12:20:25.073Z,77.45
2017-12-29T12:20:25.594Z,77.25
2017-12-29T12:20:26.164Z,77.25
2017-12-29T12:21:19.169Z,77.25
2017-12-29T12:21:19.737Z,77.45
2017-12-29T12:21:20.264Z,77.25
2017-12-29T12:21:20.783Z,77.16
2017-12-29T12:21:21.318Z,77.16
2017-12-29T12:21:21.813Z,77.64
2017-12-29T12:21:22.338Z,77.16
2017-12-29T12:21:22.858Z,77.54
2017-12-29T12:22:15.189Z,75.26
2017-12-29T12:22:15.749Z,75.26
2017-12-29T12:22:16.287Z,75.55
2017-12-29T12:22:16.865Z,75.74
2017-12-29T12:22:17.387Z,75.36
2017-12-29T12:22:17.919Z,74.88
2017-12-29T12:22:18.456Z,74.88
2017-12-29T12:22:19.033Z,74.98
2017-12-29T12:22:19.576Z,75.55
2017-12-29T12:23:13.539Z,74.51
2017-12-29T12:23:14.110Z,74.03
2017-12-29T12:23:14.619Z,74.32
2017-12-29T12:23:15.149Z,74.13
2017-12-29T12:23:15.674Z,74.51
2017-12-29T12:23:16.194Z,74.51
2017-12-29T12:23:16.720Z,74.22
2017-12-29T12:23:17.256Z,73.94
2017-12-29T12:23:17.794Z,73.84
2017-12-29T12:23:18.354Z,73.75
2017-12-29T12:23:18.876Z,73.94
2017-12-29T12:23:19.396Z,73.84
2017-12-29T12:23:19.958Z,74.03
2017-12-29T12:23:20.504Z,73.65
2017-12-29T12:23:21.022Z,73.65
2017-12-29T12:23:21.591Z,73.46
2017-12-29T12:23:22.072Z,73.94
2017-12-29T12:23:22.594Z,73.84
2017-12-29T12:23:23.112Z,73.65
2017-12-29T12:23:23.626Z,73.65
2017-12-29T12:23:24.212Z,74.03
2017-12-29T12:23:24.759Z,73.94
2017-12-29T12:23:25.274Z,73.65
2017-12-29T12:23:25.794Z,73.56
2017-12-29T12:23:26.352Z,73.37
2017-12-29T12:23:26.874Z,73.46
2017-12-29T12:23:27.394Z,73.75
2017-12-29T12:23:27.964Z,73.56
2017-12-29T12:23:28.502Z,73.84
2017-12-29T12:23:29.018Z,73.56
2017-12-29T12:23:29.542Z,73.56
2017-12-29T12:23:30.127Z,73.94
2017-12-29T12:23:30.650Z,74.03
2017-12-29T12:23:31.198Z,74.03
2017-12-29T12:23:31.724Z,73.75
2017-12-29T12:23:32.264Z,73.65
2017-12-29T12:23:32.790Z,73.65
2017-12-29T12:23:33.300Z,73.75
2017-12-29T12:23:33.876Z,73.56
2017-12-29T12:23:34.422Z,73.75
2017-12-29T12:23:34.974Z,73.56
2017-12-29T12:23:35.490Z,73.56
2017-12-29T12:23:36.026Z,73.27
2017-12-29T12:23:36.582Z,73.65
2017-12-29T12:23:37.102Z,73.65
2017-12-29T12:23:37.623Z,73.75
2017-12-29T12:23:38.152Z,73.65
2017-12-29T12:23:38.676Z,73.37
2017-12-29T12:23:39.241Z,73.65
2017-12-29T12:23:39.762Z,74.03
2017-12-29T12:23:40.274Z,73.56
2017-12-29T12:23:40.798Z,73.46
2017-12-29T12:23:41.308Z,73.08
2017-12-29T12:23:41.880Z,73.46
2017-12-29T12:23:42.402Z,73.37
2017-12-29T12:23:42.925Z,73.60
2017-12-29T12:23:43.444Z,73.46
2017-12-29T12:23:43.984Z,73.46
2017-12-29T12:23:44.494Z,73.37
2017-12-29T12:23:45.022Z,73.37
2017-12-29T12:23:45.544Z,73.56
2017-12-29T12:23:46.124Z,73.46
2017-12-29T12:23:46.632Z,73.46
2017-12-29T12:23:47.191Z,73.37
2017-12-29T12:23:47.724Z,73.60
2017-12-29T12:23:48.258Z,73.08
2017-12-29T12:23:48.772Z,73.27
2017-12-29T12:23:49.304Z,72.80
2017-12-29T12:23:49.883Z,72.99
2017-12-29T12:23:50.424Z,72.89
2017-12-29T12:23:50.955Z,72.99
2017-12-29T12:23:51.476Z,72.89
2017-12-29T12:23:52.014Z,72.80
2017-12-29T12:23:52.526Z,72.89
2017-12-29T12:23:53.080Z,73.18
2017-12-29T12:23:53.635Z,72.71
2017-12-29T12:23:54.204Z,72.89
2017-12-29T12:23:54.734Z,73.18
2017-12-29T12:23:55.272Z,72.99
2017-12-29T12:23:55.803Z,73.22
2017-12-29T12:23:56.348Z,72.99
2017-12-29T12:23:56.894Z,73.18
2017-12-29T12:23:57.408Z,73.08
2017-12-29T12:23:57.934Z,73.08
2017-12-29T12:23:58.502Z,73.08
2017-12-29T12:23:59.022Z,73.18
2017-12-29T12:23:59.546Z,72.99
2017-12-29T12:24:00.128Z,72.99
2017-12-29T12:24:00.671Z,73.08
2017-12-29T12:24:01.196Z,73.12
2017-12-29T12:24:01.725Z,73.08
2017-12-29T12:24:02.264Z,73.18
2017-12-29T12:24:02.840Z,72.89
2017-12-29T12:24:03.384Z,73.18
2017-12-29T12:24:03.918Z,72.99
2017-12-29T12:24:04.437Z,73.18
2017-12-29T12:24:04.946Z,72.99
2017-12-29T12:24:05.474Z,73.08
2017-12-29T12:24:06.046Z,72.99
2017-12-29T12:24:06.581Z,73.08
2017-12-29T12:24:07.158Z,73.18
2017-12-29T12:24:07.692Z,72.89
2017-12-29T12:24:08.258Z,72.71
2017-12-29T12:24:08.846Z,72.80
2017-12-29T12:24:09.397Z,73.03
2017-12-29T12:24:09.956Z,73.03
2017-12-29T12:24:10.484Z,72.80
2017-12-29T12:24:11.012Z,72.89
2017-12-29T12:24:11.549Z,72.99
2017-12-29T12:24:12.057Z,73.27
2017-12-29T12:24:12.588Z,73.37
2017-12-29T12:24:13.160Z,72.89
2017-12-29T12:24:13.694Z,73.03
2017-12-29T12:24:14.210Z,73.27
2017-12-29T12:24:14.752Z,73.08
2017-12-29T12:24:15.308Z,73.27
2017-12-29T12:24:15.880Z,73.46
2017-12-29T12:24:16.422Z,73.79
2017-12-29T12:24:16.940Z,72.80
2017-12-29T12:24:17.462Z,73.12
2017-12-29T12:24:18.038Z,73.79
2017-12-29T12:24:18.584Z,73.31
2017-12-29T12:24:19.263Z,73.18
2017-12-29T12:24:19.634Z,73.22
2017-12-29T12:24:20.171Z,73.18
2017-12-29T12:24:20.690Z,72.71
2017-12-29T12:24:21.213Z,72.89
2017-12-29T12:24:21.734Z,72.99
2017-12-29T12:24:22.264Z,73.18
2017-12-29T12:24:22.844Z,72.99
2017-12-29T12:24:23.360Z,73.27
2017-12-29T12:24:23.902Z,72.99
2017-12-29T12:24:24.416Z,72.99
2017-12-29T12:24:24.947Z,73.27
2017-12-29T12:24:25.462Z,72.80
2017-12-29T12:24:26.046Z,73.27
2017-12-29T12:24:26.562Z,73.27
2017-12-29T12:24:27.083Z,72.99
2017-12-29T12:24:27.604Z,72.89
2017-12-29T12:24:28.134Z,72.80
2017-12-29T12:24:28.674Z,72.99
2017-12-29T12:24:29.232Z,72.93
2017-12-29T12:24:29.803Z,72.93
2017-12-29T12:24:30.344Z,73.27
2017-12-29T12:24:30.864Z,73.03
2017-12-29T12:24:31.382Z,72.80
2017-12-29T12:24:31.904Z,72.80
2017-12-29T12:24:32.432Z,72.89
2017-12-29T12:24:32.942Z,73.27
2017-12-29T12:24:33.466Z,73.46
2017-12-29T12:24:34.032Z,73.22
2017-12-29T12:24:34.542Z,73.46
2017-12-29T12:24:35.078Z,73.56
2017-12-29T12:24:35.596Z,73.37
2017-12-29T12:24:36.124Z,73.46
2017-12-29T12:24:36.652Z,73.37
2017-12-29T12:24:37.216Z,73.37
2017-12-29T12:24:37.782Z,73.56
2017-12-29T12:24:38.304Z,73.37
2017-12-29T12:24:38.834Z,73.46
2017-12-29T12:24:39.350Z,73.46
2017-12-29T12:24:39.886Z,73.65
2017-12-29T12:24:40.416Z,73.27
2017-12-29T12:24:40.936Z,73.94
2017-12-29T12:24:41.464Z,73.75
2017-12-29T12:24:41.986Z,73.79
2017-12-29T12:24:42.510Z,73.56
2017-12-29T12:24:43.034Z,73.75
2017-12-29T12:24:43.550Z,73.75
2017-12-29T12:24:44.119Z,73.60
2017-12-29T12:24:44.680Z,73.88
2017-12-29T12:24:45.220Z,73.84
2017-12-29T12:24:45.742Z,73.56
2017-12-29T12:24:46.265Z,73.88
2017-12-29T12:24:46.844Z,73.88
2017-12-29T12:24:47.388Z,73.84
2017-12-29T12:24:47.912Z,73.88
2017-12-29T12:24:48.434Z,73.88
2017-12-29T12:24:48.998Z,73.84
2017-12-29T12:24:49.520Z,73.88
2017-12-29T12:24:50.045Z,73.60
2017-12-29T12:24:50.586Z,73.88
2017-12-29T12:24:51.164Z,73.69
2017-12-29T12:24:51.714Z,73.75
2017-12-29T12:24:52.234Z,73.79
2017-12-29T12:24:52.752Z,73.56
2017-12-29T12:24:53.304Z,74.07
2017-12-29T12:24:53.878Z,73.46
2017-12-29T12:24:54.434Z,73.31
2017-12-29T12:24:54.964Z,73.50
2017-12-29T12:24:55.482Z,73.50
2017-12-29T12:24:56.004Z,73.31
2017-12-29T12:24:56.525Z,73.31
2017-12-29T12:24:57.044Z,73.56
2017-12-29T12:24:57.564Z,73.27
2017-12-29T12:24:58.084Z,73.41
2017-12-29T12:24:58.612Z,73.37
2017-12-29T12:24:59.142Z,73.50
2017-12-29T12:24:59.664Z,73.50
2017-12-29T12:25:00.182Z,73.22
2017-12-29T12:25:00.707Z,73.50
2017-12-29T12:25:01.220Z,73.50
2017-12-29T12:25:01.807Z,73.31
2017-12-29T12:25:02.340Z,73.46
2017-12-29T12:25:02.929Z,73.65
2017-12-29T12:25:03.452Z,73.69
2017-12-29T12:25:03.976Z,73.18
2017-12-29T12:25:04.508Z,73.22
2017-12-29T12:25:05.076Z,73.03
2017-12-29T12:25:05.636Z,73.03
2017-12-29T12:25:06.156Z,72.99
2017-12-29T12:25:06.673Z,72.80
2017-12-29T12:25:07.193Z,72.89
2017-12-29T12:25:07.714Z,72.93
2017-12-29T12:25:08.264Z,72.84
2017-12-29T12:25:08.792Z,72.99
2017-12-29T12:25:09.308Z,73.22
2017-12-29T12:25:09.844Z,72.99
2017-12-29T12:25:10.366Z,72.84
2017-12-29T12:25:10.894Z,73.18
2017-12-29T12:25:11.450Z,73.27
2017-12-29T12:25:12.024Z,73.12
2017-12-29T12:25:12.571Z,72.74
2017-12-29T12:25:13.148Z,72.74
2017-12-29T12:25:13.684Z,72.84
2017-12-29T12:25:14.203Z,72.61
2017-12-29T12:25:14.758Z,72.99
2017-12-29T12:25:15.319Z,72.64
2017-12-29T12:25:15.835Z,72.84
2017-12-29T12:25:16.362Z,72.64
2017-12-29T12:25:16.917Z,72.74
2017-12-29T12:25:17.468Z,72.84
2017-12-29T12:25:18.036Z,72.89
2017-12-29T12:25:18.572Z,72.84
2017-12-29T12:25:19.096Z,72.80
2017-12-29T12:25:19.637Z,73.03
2017-12-29T12:25:20.153Z,72.80
2017-12-29T12:25:20.674Z,72.36
2017-12-29T12:25:21.204Z,72.55
2017-12-29T12:25:21.720Z,72.42
2017-12-29T12:25:22.264Z,72.55
2017-12-29T12:25:22.842Z,72.45
2017-12-29T12:25:23.378Z,72.17
2017-12-29T12:25:23.904Z,72.33
2017-12-29T12:25:24.422Z,72.27
2017-12-29T12:25:25.005Z,72.27
2017-12-29T12:25:25.550Z,72.36
2017-12-29T12:25:26.072Z,72.55
2017-12-29T12:25:26.607Z,72.61
2017-12-29T12:25:27.149Z,72.55
2017-12-29T12:25:27.683Z,72.33
2017-12-29T12:25:28.202Z,72.55
2017-12-29T12:25:28.736Z,72.33
2017-12-29T12:25:29.291Z,72.55
2017-12-29T12:25:29.814Z,72.45
2017-12-29T12:25:30.338Z,72.33
2017-12-29T12:25:30.860Z,72.36
2017-12-29T12:25:31.386Z,72.27
2017-12-29T12:25:31.968Z,72.55
2017-12-29T12:25:32.492Z,72.52
2017-12-29T12:25:33.068Z,72.61
2017-12-29T12:25:33.642Z,72.52
2017-12-29T12:25:34.181Z,72.61
2017-12-29T12:25:34.760Z,72.52
2017-12-29T12:25:35.268Z,72.64
2017-12-29T12:25:35.797Z,72.23
2017-12-29T12:25:36.348Z,72.64
2017-12-29T12:25:36.880Z,72.64
2017-12-29T12:25:37.404Z,72.55
2017-12-29T12:25:37.962Z,72.55
2017-12-29T12:25:38.484Z,72.27
2017-12-29T12:25:39.004Z,72.52
2017-12-29T12:25:39.534Z,72.55
2017-12-29T12:25:40.098Z,72.55
2017-12-29T12:25:40.626Z,72.42
2017-12-29T12:25:41.142Z,72.55
2017-12-29T12:25:41.664Z,72.55
2017-12-29T12:25:42.182Z,72.55
2017-12-29T12:25:42.760Z,72.52
2017-12-29T12:25:43.290Z,72.55
2017-12-29T12:25:43.866Z,72.33
2017-12-29T12:25:44.385Z,72.61
2017-12-29T12:25:44.901Z,72.55
2017-12-29T12:25:45.470Z,72.55
2017-12-29T12:25:46.036Z,72.64
2017-12-29T12:25:46.596Z,72.36
2017-12-29T12:25:47.118Z,72.36
2017-12-29T12:25:47.636Z,72.55
2017-12-29T12:25:48.196Z,72.55
2017-12-29T12:25:48.758Z,72.45
2017-12-29T12:25:49.304Z,72.36
2017-12-29T12:25:49.823Z,72.45
2017-12-29T12:25:50.352Z,72.33
2017-12-29T12:25:50.872Z,72.36
2017-12-29T12:25:51.392Z,72.23
2017-12-29T12:25:51.933Z,72.27
2017-12-29T12:25:52.494Z,72.55
2017-12-29T12:25:53.014Z,72.55
2017-12-29T12:25:53.543Z,72.64
2017-12-29T12:25:54.108Z,72.55
2017-12-29T12:25:54.676Z,72.61
2017-12-29T12:25:55.218Z,73.03
2017-12-29T12:25:55.800Z,73.03
2017-12-29T12:25:56.322Z,72.55
2017-12-29T12:25:56.844Z,72.93
2017-12-29T12:25:57.376Z,73.03
2017-12-29T12:25:57.942Z,72.84
2017-12-29T12:25:58.454Z,72.93
2017-12-29T12:25:58.981Z,72.80
2017-12-29T12:25:59.570Z,72.55
2017-12-29T12:26:00.084Z,72.74
2017-12-29T12:26:00.612Z,72.74
2017-12-29T12:26:01.144Z,72.74
2017-12-29T12:26:01.710Z,72.84
2017-12-29T12:26:02.268Z,72.64
2017-12-29T12:26:02.802Z,72.84
2017-12-29T12:26:03.328Z,72.74
2017-12-29T12:26:03.844Z,72.93
2017-12-29T12:26:04.371Z,72.84
2017-12-29T12:26:04.918Z,72.93
2017-12-29T12:26:05.468Z,72.93
2017-12-29T12:26:06.022Z,72.93
2017-12-29T12:26:06.552Z,73.03
2017-12-29T12:26:07.074Z,72.64
2017-12-29T12:26:07.648Z,72.74
2017-12-29T12:26:08.184Z,72.74
2017-12-29T12:26:08.757Z,72.84
2017-12-29T12:26:09.271Z,72.74
2017-12-29T12:26:09.804Z,73.12
2017-12-29T12:26:10.322Z,73.03
2017-12-29T12:26:10.844Z,72.74
2017-12-29T12:26:11.384Z,72.93
2017-12-29T12:26:11.946Z,72.84
2017-12-29T12:26:12.524Z,72.74
2017-12-29T12:26:13.044Z,73.03
2017-12-29T12:26:13.562Z,73.03
2017-12-29T12:26:14.104Z,72.74
2017-12-29T12:26:14.658Z,72.74
2017-12-29T12:26:15.228Z,72.93
2017-12-29T12:26:15.754Z,72.74
2017-12-29T12:26:16.274Z,72.74
2017-12-29T12:26:16.792Z,72.93
2017-12-29T12:26:17.314Z,72.74
2017-12-29T12:26:17.828Z,72.84
2017-12-29T12:26:18.354Z,72.71
2017-12-29T12:26:18.927Z,72.74
2017-12-29T12:26:19.475Z,72.84
2017-12-29T12:26:20.026Z,72.84
2017-12-29T12:26:20.554Z,72.84
2017-12-29T12:26:21.074Z,72.74
2017-12-29T12:26:21.603Z,72.74
2017-12-29T12:26:22.126Z,72.74
2017-12-29T12:26:22.684Z,72.93
2017-12-29T12:26:23.204Z,72.93
2017-12-29T12:26:23.724Z,72.93
2017-12-29T12:26:24.242Z,72.93
2017-12-29T12:26:24.762Z,72.45
2017-12-29T12:26:25.304Z,73.12
2017-12-29T12:26:25.884Z,72.45
2017-12-29T12:26:26.428Z,73.12
2017-12-29T12:26:26.952Z,72.27
2017-12-29T12:26:27.484Z,72.64
2017-12-29T12:26:28.000Z,72.64
2017-12-29T12:26:28.526Z,72.64
2017-12-29T12:26:29.034Z,72.36
2017-12-29T12:26:29.558Z,72.33
2017-12-29T12:26:30.078Z,72.52
2017-12-29T12:26:30.603Z,72.45
2017-12-29T12:26:31.151Z,72.45
2017-12-29T12:26:31.684Z,72.27
2017-12-29T12:26:32.210Z,72.36
2017-12-29T12:26:32.750Z,72.27
2017-12-29T12:26:33.308Z,72.27
2017-12-29T12:26:33.914Z,72.27
2017-12-29T12:26:34.412Z,72.36
2017-12-29T12:26:34.936Z,72.36
2017-12-29T12:26:35.482Z,72.45
2017-12-29T12:26:36.046Z,72.36
2017-12-29T12:26:36.568Z,72.27
2017-12-29T12:26:37.078Z,72.27
2017-12-29T12:26:37.642Z,72.64
2017-12-29T12:26:38.160Z,72.55
2017-12-29T12:26:38.688Z,72.45
2017-12-29T12:26:39.222Z,72.45
2017-12-29T12:26:39.800Z,72.36
2017-12-29T12:26:40.336Z,72.64
2017-12-29T12:26:40.854Z,72.64
2017-12-29T12:26:41.374Z,72.64
2017-12-29T12:26:41.904Z,72.64
2017-12-29T12:26:42.435Z,72.55
2017-12-29T12:26:43.015Z,72.45
2017-12-29T12:26:43.572Z,72.45
2017-12-29T12:26:44.104Z,72.36
2017-12-29T12:26:44.624Z,72.27
2017-12-29T12:26:45.152Z,72.17
2017-12-29T12:26:45.686Z,72.27
2017-12-29T12:26:46.200Z,72.27
2017-12-29T12:26:46.774Z,72.45
2017-12-29T12:26:47.261Z,72.45
2017-12-29T12:26:47.794Z,72.36
2017-12-29T12:26:48.308Z,72.36
2017-12-29T12:26:48.850Z,72.17
2017-12-29T12:26:49.368Z,72.27
2017-12-29T12:26:49.883Z,72.08
2017-12-29T12:26:50.448Z,72.04
2017-12-29T12:26:50.986Z,72.27
2017-12-29T12:26:51.564Z,72.04
2017-12-29T12:26:52.074Z,72.36
2017-12-29T12:26:52.605Z,72.08
2017-12-29T12:26:53.144Z,72.23
2017-12-29T12:26:53.730Z,72.23
2017-12-29T12:26:54.268Z,72.27
2017-12-29T12:26:54.798Z,71.70
2017-12-29T12:26:55.328Z,71.76
2017-12-29T12:26:55.838Z,71.60
2017-12-29T12:26:56.356Z,71.60
2017-12-29T12:26:56.891Z,71.66
2017-12-29T12:26:57.412Z,71.70
2017-12-29T12:26:57.946Z,72.04
2017-12-29T12:26:58.512Z,71.80
2017-12-29T12:26:59.079Z,71.60
2017-12-29T12:26:59.604Z,71.70
2017-12-29T12:27:00.122Z,71.60
2017-12-29T12:27:00.684Z,71.51
2017-12-29T12:27:01.225Z,71.76
2017-12-29T12:27:01.752Z,71.85
2017-12-29T12:27:02.272Z,71.76
2017-12-29T12:27:02.833Z,71.80
2017-12-29T12:27:03.462Z,71.89
2017-12-29T12:27:04.041Z,71.89
2017-12-29T12:27:04.606Z,71.76
2017-12-29T12:27:05.124Z,71.85
2017-12-29T12:27:05.693Z,72.04
2017-12-29T12:27:06.272Z,71.95
2017-12-29T12:27:06.837Z,72.04
2017-12-29T12:27:07.389Z,71.28
2017-12-29T12:27:07.914Z,71.51
2017-12-29T12:27:08.481Z,71.51
2017-12-29T12:27:08.984Z,71.51
2017-12-29T12:27:09.562Z,71.66
2017-12-29T12:27:10.112Z,71.38
2017-12-29T12:27:10.644Z,71.41
2017-12-29T12:27:11.179Z,71.41
2017-12-29T12:27:11.724Z,71.57
2017-12-29T12:27:12.264Z,71.19
2017-12-29T12:27:12.822Z,71.22
2017-12-29T12:27:13.413Z,71.28
2017-12-29T12:27:14.038Z,71.22
2017-12-29T12:27:14.582Z,71.22
2017-12-29T12:27:15.098Z,71.22
2017-12-29T12:27:15.634Z,71.47
2017-12-29T12:27:16.292Z,71.19
2017-12-29T12:27:16.780Z,71.13
2017-12-29T12:27:17.424Z,71.22
2017-12-29T12:27:18.077Z,71.51
2017-12-29T12:27:18.610Z,71.09
2017-12-29T12:27:19.144Z,71.13
2017-12-29T12:27:19.718Z,71.22
2017-12-29T12:27:20.266Z,71.38
2017-12-29T12:27:20.844Z,71.57
2017-12-29T12:27:21.392Z,71.09
2017-12-29T12:27:21.912Z,71.47
2017-12-29T12:27:22.436Z,71.09
2017-12-29T12:27:22.984Z,71.19
2017-12-29T12:27:23.564Z,71.09
2017-12-29T12:27:24.074Z,71.38
2017-12-29T12:27:24.597Z,71.09
2017-12-29T12:27:25.148Z,71.19
2017-12-29T12:27:25.722Z,71.28
2017-12-29T12:27:26.244Z,71.32
2017-12-29T12:27:26.765Z,71.13
2017-12-29T12:27:27.304Z,71.70
2017-12-29T12:27:27.878Z,71.51
2017-12-29T12:27:28.439Z,71.70
2017-12-29T12:27:28.984Z,71.28
2017-12-29T12:27:29.563Z,71.51
2017-12-29T12:27:30.112Z,71.38
2017-12-29T12:27:30.622Z,71.47
2017-12-29T12:27:31.143Z,71.47
2017-12-29T12:27:31.717Z,71.57
2017-12-29T12:27:32.264Z,71.70
2017-12-29T12:27:32.836Z,72.14
2017-12-29T12:27:33.402Z,72.17
2017-12-29T12:27:33.912Z,71.85
2017-12-29T12:27:34.440Z,71.89
2017-12-29T12:27:34.984Z,71.95
2017-12-29T12:27:35.516Z,71.80
2017-12-29T12:27:36.036Z,71.89
2017-12-29T12:27:36.593Z,71.80
2017-12-29T12:27:37.146Z,71.80
2017-12-29T12:27:37.668Z,71.80
2017-12-29T12:27:38.188Z,71.95
2017-12-29T12:27:38.772Z,71.80
2017-12-29T12:27:39.292Z,71.76
2017-12-29T12:27:39.804Z,71.76
2017-12-29T12:27:40.332Z,71.85
2017-12-29T12:27:40.894Z,71.76
2017-12-29T12:27:41.480Z,71.89
2017-12-29T12:27:42.030Z,71.76
2017-12-29T12:27:42.594Z,71.98
2017-12-29T12:27:43.117Z,71.66
2017-12-29T12:27:43.628Z,71.80
2017-12-29T12:27:44.156Z,71.80
2017-12-29T12:27:44.684Z,71.76
2017-12-29T12:27:45.222Z,71.57
2017-12-29T12:27:45.807Z,71.66
2017-12-29T12:27:46.354Z,71.89
2017-12-29T12:27:46.872Z,71.76
2017-12-29T12:27:47.400Z,71.95
2017-12-29T12:27:47.938Z,71.66
2017-12-29T12:27:48.452Z,71.89
2017-12-29T12:27:48.980Z,71.60
2017-12-29T12:27:49.494Z,71.51
2017-12-29T12:27:50.024Z,71.60
2017-12-29T12:27:50.544Z,71.66
2017-12-29T12:27:51.068Z,71.70
2017-12-29T12:27:51.600Z,71.60
2017-12-29T12:27:52.132Z,71.66
2017-12-29T12:27:52.672Z,71.66
2017-12-29T12:27:53.224Z,72.04
2017-12-29T12:27:53.799Z,72.04
2017-12-29T12:27:54.324Z,71.76
2017-12-29T12:27:54.844Z,71.80
2017-12-29T12:27:55.383Z,71.98
2017-12-29T12:27:55.960Z,71.89
2017-12-29T12:27:56.489Z,71.89
2017-12-29T12:27:57.010Z,71.89
2017-12-29T12:27:57.550Z,71.85
2017-12-29T12:27:58.069Z,71.60
2017-12-29T12:27:58.608Z,71.89
2017-12-29T12:27:59.122Z,71.66
2017-12-29T12:27:59.654Z,71.89
2017-12-29T12:28:00.182Z,71.51
2017-12-29T12:28:00.762Z,71.70
2017-12-29T12:28:01.290Z,72.23
2017-12-29T12:28:01.832Z,72.23
2017-12-29T12:28:02.352Z,72.27
2017-12-29T12:28:02.868Z,72.27
2017-12-29T12:28:03.387Z,72.27
2017-12-29T12:28:03.950Z,71.89
2017-12-29T12:28:04.475Z,72.08
2017-12-29T12:28:05.034Z,72.08
2017-12-29T12:28:05.568Z,72.27
2017-12-29T12:28:06.118Z,72.23
2017-12-29T12:28:06.680Z,72.04
2017-12-29T12:28:07.218Z,72.14
2017-12-29T12:28:07.800Z,72.17
2017-12-29T12:28:08.334Z,72.14
2017-12-29T12:28:08.886Z,72.17
2017-12-29T12:28:09.482Z,72.14
2017-12-29T12:28:10.024Z,72.23
2017-12-29T12:28:10.592Z,72.33
2017-12-29T12:28:11.114Z,72.14
2017-12-29T12:28:11.680Z,72.27
2017-12-29T12:28:12.276Z,72.27
2017-12-29T12:28:12.836Z,72.36
2017-12-29T12:28:13.398Z,72.52
2017-12-29T12:28:13.908Z,72.36
2017-12-29T12:28:14.478Z,72.55
2017-12-29T12:28:14.948Z,72.42
2017-12-29T12:28:15.474Z,72.42
2017-12-29T12:28:16.068Z,72.61
2017-12-29T12:28:16.572Z,72.42
2017-12-29T12:28:17.155Z,72.52
2017-12-29T12:28:17.674Z,72.55
2017-12-29T12:28:18.200Z,72.55
2017-12-29T12:28:18.775Z,72.55
2017-12-29T12:28:19.302Z,72.45
2017-12-29T12:28:19.874Z,72.42
2017-12-29T12:28:20.390Z,72.61
2017-12-29T12:28:20.924Z,72.52
2017-12-29T12:28:21.503Z,72.42
2017-12-29T12:28:22.047Z,72.55
2017-12-29T12:28:22.648Z,72.55
2017-12-29T12:28:23.171Z,72.42
2017-12-29T12:28:23.667Z,72.45
2017-12-29T12:28:24.184Z,72.55
2017-12-29T12:28:24.801Z,72.42
2017-12-29T12:28:25.336Z,72.42
2017-12-29T12:28:25.872Z,72.52
2017-12-29T12:28:26.444Z,72.55
2017-12-29T12:28:26.970Z,72.52
2017-12-29T12:28:27.492Z,72.33
2017-12-29T12:28:28.016Z,72.42
2017-12-29T12:28:28.543Z,72.33
2017-12-29T12:28:29.063Z,72.42
2017-12-29T12:28:29.584Z,72.36
2017-12-29T12:28:30.120Z,72.45
2017-12-29T12:28:30.632Z,72.08
2017-12-29T12:28:31.151Z,72.42
2017-12-29T12:28:31.726Z,72.23
2017-12-29T12:28:32.274Z,72.42
2017-12-29T12:28:32.831Z,72.23
2017-12-29T12:28:33.362Z,72.61
2017-12-29T12:28:33.892Z,72.52
2017-12-29T12:28:34.434Z,72.93
2017-12-29T12:28:34.960Z,72.99
2017-12-29T12:28:35.475Z,73.03
2017-12-29T12:28:36.040Z,72.74
2017-12-29T12:28:36.604Z,72.71
2017-12-29T12:28:37.121Z,72.80
2017-12-29T12:28:37.642Z,72.84
2017-12-29T12:28:38.200Z,72.74
2017-12-29T12:28:38.768Z,72.71
2017-12-29T12:28:39.325Z,72.71
2017-12-29T12:28:39.832Z,72.71
2017-12-29T12:28:40.360Z,72.71
2017-12-29T12:28:40.914Z,72.64
2017-12-29T12:28:41.436Z,72.52
2017-12-29T12:28:41.976Z,73.22
2017-12-29T12:28:42.523Z,72.64
2017-12-29T12:28:43.062Z,73.03
2017-12-29T12:28:43.589Z,72.99
2017-12-29T12:28:44.124Z,72.80
2017-12-29T12:28:44.646Z,72.84
2017-12-29T12:28:45.172Z,72.71
2017-12-29T12:28:45.712Z,72.93
2017-12-29T12:28:46.286Z,72.64
2017-12-29T12:28:46.826Z,72.89
2017-12-29T12:28:47.353Z,73.12
2017-12-29T12:28:47.872Z,72.93
2017-12-29T12:28:48.481Z,73.22
2017-12-29T12:28:48.974Z,73.31
2017-12-29T12:28:49.494Z,73.31
2017-12-29T12:28:50.013Z,73.31
2017-12-29T12:28:50.548Z,73.08
2017-12-29T12:28:51.064Z,72.84
2017-12-29T12:28:51.584Z,73.03
2017-12-29T12:28:52.104Z,73.12
2017-12-29T12:28:52.693Z,73.08
2017-12-29T12:28:53.224Z,73.03
2017-12-29T12:28:53.740Z,73.22
2017-12-29T12:28:54.276Z,72.74
2017-12-29T12:28:54.810Z,72.84
2017-12-29T12:28:55.340Z,72.84
2017-12-29T12:28:55.864Z,72.84
2017-12-29T12:28:56.433Z,72.89
2017-12-29T12:28:57.004Z,73.22
2017-12-29T12:28:57.524Z,73.60
2017-12-29T12:29:19.022Z,73.27
2017-12-29T12:29:19.560Z,74.64
2017-12-29T12:29:20.127Z,74.73
2017-12-29T12:29:20.636Z,74.69
2017-12-29T12:29:21.154Z,74.69
2017-12-29T12:29:21.672Z,74.51
2017-12-29T12:29:22.208Z,74.32
2017-12-29T12:29:22.746Z,74.51
2017-12-29T12:29:23.324Z,74.73
2017-12-29T12:29:23.832Z,74.69
2017-12-29T12:29:24.364Z,74.60
2017-12-29T12:29:24.884Z,74.69
2017-12-29T12:29:25.422Z,74.41
2017-12-29T12:29:25.944Z,74.64
2017-12-29T12:29:26.524Z,74.64
2017-12-29T12:29:27.100Z,74.83
2017-12-29T12:29:27.634Z,74.41
2017-12-29T12:29:28.162Z,74.83
2017-12-29T12:29:28.683Z,74.79
2017-12-29T12:29:29.232Z,74.88
2017-12-29T12:29:29.787Z,74.88
2017-12-29T12:29:30.361Z,74.13
2017-12-29T12:29:30.884Z,74.35
2017-12-29T12:29:31.414Z,74.13
2017-12-29T12:29:31.942Z,74.35
2017-12-29T12:29:32.512Z,74.03
2017-12-29T12:29:33.104Z,74.60
2017-12-29T12:29:33.634Z,74.64
2017-12-29T12:29:34.163Z,74.51
2017-12-29T12:29:34.685Z,74.45